sensor_id;sensor_type;location;lat;lon;timestamp;temperature;humidity
9919;DHT22;4998;51.024;13.828;2023-02-18T00:01:36;13.40;91.90
9919;DHT22;4998;51.024;13.828;2023-02-18T00:04:04;13.40;91.80
9919;DHT22;4998;51.024;13.828;2023-02-18T00:06:32;13.40;91.70
9919;DHT22;4998;51.024;13.828;2023-02-18T00:09:00;13.40;91.70
9919;DHT22;4998;51.024;13.828;2023-02-18T00:11:31;13.40;91.60
9919;DHT22;4998;51.024;13.828;2023-02-18T00:14:00;13.40;91.60
9919;DHT22;4998;51.024;13.828;2023-02-18T00:16:28;13.40;91.50
9919;DHT22;4998;51.024;13.828;2023-02-18T00:18:56;13.40;91.50
9919;DHT22;4998;51.024;13.828;2023-02-18T00:21:24;13.40;91.40
9919;DHT22;4998;51.024;13.828;2023-02-18T00:23:51;13.40;91.40
9919;DHT22;4998;51.024;13.828;2023-02-18T00:26:19;13.40;91.40
9919;DHT22;4998;51.024;13.828;2023-02-18T00:28:48;13.40;91.40
9919;DHT22;4998;51.024;13.828;2023-02-18T00:31:18;13.40;91.40
9919;DHT22;4998;51.024;13.828;2023-02-18T00:33:45;13.40;91.30
9919;DHT22;4998;51.024;13.828;2023-02-18T00:36:14;13.40;91.30
9919;DHT22;4998;51.024;13.828;2023-02-18T00:38:43;13.40;91.20
9919;DHT22;4998;51.024;13.828;2023-02-18T00:41:22;13.40;91.20
9919;DHT22;4998;51.024;13.828;2023-02-18T00:47:29;13.40;91.20
9919;DHT22;4998;51.024;13.828;2023-02-18T00:49:59;13.40;91.20
9919;DHT22;4998;51.024;13.828;2023-02-18T00:52:26;13.40;91.10
9919;DHT22;4998;51.024;13.828;2023-02-18T00:54:53;13.30;91.10
9919;DHT22;4998;51.024;13.828;2023-02-18T00:57:20;13.40;91.10
9919;DHT22;4998;51.024;13.828;2023-02-18T00:59:47;13.40;91.10
9919;DHT22;4998;51.024;13.828;2023-02-18T01:02:14;13.30;91.10
9919;DHT22;4998;51.024;13.828;2023-02-18T01:04:42;13.30;91.10
9919;DHT22;4998;51.024;13.828;2023-02-18T01:07:10;13.40;91.10
9919;DHT22;4998;51.024;13.828;2023-02-18T01:09:37;13.30;90.90
9919;DHT22;4998;51.024;13.828;2023-02-18T01:12:04;13.30;90.90
9919;DHT22;4998;51.024;13.828;2023-02-18T01:14:31;13.30;90.90
9919;DHT22;4998;51.024;13.828;2023-02-18T01:16:58;13.30;90.90
9919;DHT22;4998;51.024;13.828;2023-02-18T01:19:25;13.30;90.80
9919;DHT22;4998;51.024;13.828;2023-02-18T01:21:54;13.30;90.70
9919;DHT22;4998;51.024;13.828;2023-02-18T01:24:21;13.30;90.70
9919;DHT22;4998;51.024;13.828;2023-02-18T01:26:48;13.30;90.60
9919;DHT22;4998;51.024;13.828;2023-02-18T01:29:15;13.20;90.50
9919;DHT22;4998;51.024;13.828;2023-02-18T01:31:42;13.20;90.40
9919;DHT22;4998;51.024;13.828;2023-02-18T01:34:09;13.20;90.40
9919;DHT22;4998;51.024;13.828;2023-02-18T01:36:35;13.20;90.40
9919;DHT22;4998;51.024;13.828;2023-02-18T01:39:05;13.20;90.30
9919;DHT22;4998;51.024;13.828;2023-02-18T01:41:32;13.10;90.20
9919;DHT22;4998;51.024;13.828;2023-02-18T01:44:11;13.10;90.20
9919;DHT22;4998;51.024;13.828;2023-02-18T01:46:38;13.10;90.10
9919;DHT22;4998;51.024;13.828;2023-02-18T01:49:06;13.10;90.10
9919;DHT22;4998;51.024;13.828;2023-02-18T01:51:36;13.10;90.10
9919;DHT22;4998;51.024;13.828;2023-02-18T01:54:08;13.00;90.10
9919;DHT22;4998;51.024;13.828;2023-02-18T01:56:40;13.00;90.00
9919;DHT22;4998;51.024;13.828;2023-02-18T01:59:10;13.00;90.00
9919;DHT22;4998;51.024;13.828;2023-02-18T02:01:40;13.00;90.00
9919;DHT22;4998;51.024;13.828;2023-02-18T02:04:08;12.90;90.00
9919;DHT22;4998;51.024;13.828;2023-02-18T02:06:35;12.90;90.10
9919;DHT22;4998;51.024;13.828;2023-02-18T02:09:04;12.90;90.10
9919;DHT22;4998;51.024;13.828;2023-02-18T02:11:44;12.90;90.10
9919;DHT22;4998;51.024;13.828;2023-02-18T02:14:25;12.90;90.10
9919;DHT22;4998;51.024;13.828;2023-02-18T02:17:02;12.90;90.10
9919;DHT22;4998;51.024;13.828;2023-02-18T02:29:13;12.80;90.00
9919;DHT22;4998;51.024;13.828;2023-02-18T02:34:51;12.70;89.70
9919;DHT22;4998;51.024;13.828;2023-02-18T02:37:25;12.70;89.60
9919;DHT22;4998;51.024;13.828;2023-02-18T02:40:02;12.70;89.60
9919;DHT22;4998;51.024;13.828;2023-02-18T02:42:39;12.70;89.70
9919;DHT22;4998;51.024;13.828;2023-02-18T02:45:18;12.70;89.50
9919;DHT22;4998;51.024;13.828;2023-02-18T02:47:52;12.70;89.50
9919;DHT22;4998;51.024;13.828;2023-02-18T02:50:27;12.70;89.50
9919;DHT22;4998;51.024;13.828;2023-02-18T02:52:59;12.70;90.10
9919;DHT22;4998;51.024;13.828;2023-02-18T02:55:28;12.70;89.30
9919;DHT22;4998;51.024;13.828;2023-02-18T02:57:55;12.70;89.20
9919;DHT22;4998;51.024;13.828;2023-02-18T03:00:30;12.70;89.20
9919;DHT22;4998;51.024;13.828;2023-02-18T03:03:25;12.70;89.10
9919;DHT22;4998;51.024;13.828;2023-02-18T03:06:07;12.70;88.80
9919;DHT22;4998;51.024;13.828;2023-02-18T03:08:40;12.70;88.80
9919;DHT22;4998;51.024;13.828;2023-02-18T03:11:14;12.70;88.70
9919;DHT22;4998;51.024;13.828;2023-02-18T03:14:02;12.70;88.10
9919;DHT22;4998;51.024;13.828;2023-02-18T03:16:34;12.70;87.80
9919;DHT22;4998;51.024;13.828;2023-02-18T03:19:08;12.70;87.40
9919;DHT22;4998;51.024;13.828;2023-02-18T03:21:40;12.80;86.20
9919;DHT22;4998;51.024;13.828;2023-02-18T03:24:13;12.70;85.60
9919;DHT22;4998;51.024;13.828;2023-02-18T03:26:46;12.80;84.90
9919;DHT22;4998;51.024;13.828;2023-02-18T03:29:15;12.80;84.90
9919;DHT22;4998;51.024;13.828;2023-02-18T03:31:46;12.80;84.50
9919;DHT22;4998;51.024;13.828;2023-02-18T03:34:17;12.80;84.20
9919;DHT22;4998;51.024;13.828;2023-02-18T03:36:47;12.90;83.80
9919;DHT22;4998;51.024;13.828;2023-02-18T03:39:16;12.80;83.10
9919;DHT22;4998;51.024;13.828;2023-02-18T03:41:45;12.80;82.40
9919;DHT22;4998;51.024;13.828;2023-02-18T03:44:12;12.90;82.40
9919;DHT22;4998;51.024;13.828;2023-02-18T03:46:41;12.80;81.90
9919;DHT22;4998;51.024;13.828;2023-02-18T03:49:09;12.90;82.30
9919;DHT22;4998;51.024;13.828;2023-02-18T03:51:36;12.90;82.00
9919;DHT22;4998;51.024;13.828;2023-02-18T03:54:05;12.90;82.10
9919;DHT22;4998;51.024;13.828;2023-02-18T03:56:32;12.90;82.20
9919;DHT22;4998;51.024;13.828;2023-02-18T03:58:59;12.80;82.30
9919;DHT22;4998;51.024;13.828;2023-02-18T04:01:26;12.90;81.90
9919;DHT22;4998;51.024;13.828;2023-02-18T04:03:54;12.80;82.00
9919;DHT22;4998;51.024;13.828;2023-02-18T04:06:21;12.90;82.30
9919;DHT22;4998;51.024;13.828;2023-02-18T04:08:48;12.90;82.30
9919;DHT22;4998;51.024;13.828;2023-02-18T04:11:16;12.80;82.00
9919;DHT22;4998;51.024;13.828;2023-02-18T04:13:43;12.90;82.20
9919;DHT22;4998;51.024;13.828;2023-02-18T04:16:11;12.90;82.30
9919;DHT22;4998;51.024;13.828;2023-02-18T04:18:38;12.80;82.20
9919;DHT22;4998;51.024;13.828;2023-02-18T04:21:05;12.80;82.00
9919;DHT22;4998;51.024;13.828;2023-02-18T04:23:32;12.80;82.10
9919;DHT22;4998;51.024;13.828;2023-02-18T04:25:59;12.80;82.10
9919;DHT22;4998;51.024;13.828;2023-02-18T04:28:27;12.80;82.00
9919;DHT22;4998;51.024;13.828;2023-02-18T04:30:54;12.80;82.10
9919;DHT22;4998;51.024;13.828;2023-02-18T04:33:21;12.80;82.20
9919;DHT22;4998;51.024;13.828;2023-02-18T04:35:49;12.80;82.30
9919;DHT22;4998;51.024;13.828;2023-02-18T04:38:16;12.80;82.40
9919;DHT22;4998;51.024;13.828;2023-02-18T04:40:43;12.80;82.40
9919;DHT22;4998;51.024;13.828;2023-02-18T04:43:10;12.80;82.60
9919;DHT22;4998;51.024;13.828;2023-02-18T04:45:38;12.80;82.70
9919;DHT22;4998;51.024;13.828;2023-02-18T04:48:05;12.80;82.70
9919;DHT22;4998;51.024;13.828;2023-02-18T04:50:32;12.80;82.80
9919;DHT22;4998;51.024;13.828;2023-02-18T04:52:59;12.80;82.80
9919;DHT22;4998;51.024;13.828;2023-02-18T04:55:26;12.80;82.90
9919;DHT22;4998;51.024;13.828;2023-02-18T04:57:53;12.80;83.10
9919;DHT22;4998;51.024;13.828;2023-02-18T05:00:21;12.80;83.30
9919;DHT22;4998;51.024;13.828;2023-02-18T05:02:49;12.80;83.40
9919;DHT22;4998;51.024;13.828;2023-02-18T05:05:16;12.80;83.60
9919;DHT22;4998;51.024;13.828;2023-02-18T05:07:43;12.80;83.70
9919;DHT22;4998;51.024;13.828;2023-02-18T05:10:14;12.80;83.70
9919;DHT22;4998;51.024;13.828;2023-02-18T05:12:42;12.80;83.70
9919;DHT22;4998;51.024;13.828;2023-02-18T05:15:09;12.80;83.80
9919;DHT22;4998;51.024;13.828;2023-02-18T05:17:36;12.80;83.80
9919;DHT22;4998;51.024;13.828;2023-02-18T05:20:06;12.80;84.00
9919;DHT22;4998;51.024;13.828;2023-02-18T05:22:33;12.80;84.00
9919;DHT22;4998;51.024;13.828;2023-02-18T05:25:00;12.70;83.90
9919;DHT22;4998;51.024;13.828;2023-02-18T05:27:27;12.80;84.00
9919;DHT22;4998;51.024;13.828;2023-02-18T05:29:54;12.80;84.00
9919;DHT22;4998;51.024;13.828;2023-02-18T05:32:21;12.80;84.10
9919;DHT22;4998;51.024;13.828;2023-02-18T05:34:48;12.80;84.00
9919;DHT22;4998;51.024;13.828;2023-02-18T05:37:17;12.80;84.00
9919;DHT22;4998;51.024;13.828;2023-02-18T05:39:44;12.80;84.10
9919;DHT22;4998;51.024;13.828;2023-02-18T05:42:11;12.80;84.20
9919;DHT22;4998;51.024;13.828;2023-02-18T05:44:38;12.80;84.20
9919;DHT22;4998;51.024;13.828;2023-02-18T05:47:07;12.80;84.30
9919;DHT22;4998;51.024;13.828;2023-02-18T05:49:35;12.80;84.50
9919;DHT22;4998;51.024;13.828;2023-02-18T05:52:02;12.80;84.70
9919;DHT22;4998;51.024;13.828;2023-02-18T05:54:31;12.80;84.70
9919;DHT22;4998;51.024;13.828;2023-02-18T05:56:59;12.80;84.70
9919;DHT22;4998;51.024;13.828;2023-02-18T05:59:26;12.80;84.80
9919;DHT22;4998;51.024;13.828;2023-02-18T06:01:53;12.80;84.80
9919;DHT22;4998;51.024;13.828;2023-02-18T06:04:20;12.80;85.10
9919;DHT22;4998;51.024;13.828;2023-02-18T06:06:47;12.80;85.30
9919;DHT22;4998;51.024;13.828;2023-02-18T06:09:14;12.80;85.50
9919;DHT22;4998;51.024;13.828;2023-02-18T06:11:43;12.80;85.60
9919;DHT22;4998;51.024;13.828;2023-02-18T06:14:10;12.70;85.80
9919;DHT22;4998;51.024;13.828;2023-02-18T06:16:37;12.80;86.10
9919;DHT22;4998;51.024;13.828;2023-02-18T06:19:04;12.80;86.40
9919;DHT22;4998;51.024;13.828;2023-02-18T06:21:31;12.70;86.40
9919;DHT22;4998;51.024;13.828;2023-02-18T06:23:58;12.80;87.00
9919;DHT22;4998;51.024;13.828;2023-02-18T06:26:26;12.80;87.40
9919;DHT22;4998;51.024;13.828;2023-02-18T06:28:54;12.70;87.70
9919;DHT22;4998;51.024;13.828;2023-02-18T06:31:21;12.70;88.10
9919;DHT22;4998;51.024;13.828;2023-02-18T06:33:48;12.80;88.50
9919;DHT22;4998;51.024;13.828;2023-02-18T06:36:15;12.80;88.90
9919;DHT22;4998;51.024;13.828;2023-02-18T06:38:43;12.70;89.10
9919;DHT22;4998;51.024;13.828;2023-02-18T06:41:12;12.80;89.70
9919;DHT22;4998;51.024;13.828;2023-02-18T06:43:39;12.80;90.00
9919;DHT22;4998;51.024;13.828;2023-02-18T06:46:08;12.80;90.00
9919;DHT22;4998;51.024;13.828;2023-02-18T06:48:35;12.80;90.20
9919;DHT22;4998;51.024;13.828;2023-02-18T06:51:03;12.80;90.30
9919;DHT22;4998;51.024;13.828;2023-02-18T06:53:30;12.80;90.40
9919;DHT22;4998;51.024;13.828;2023-02-18T06:55:57;12.80;90.50
9919;DHT22;4998;51.024;13.828;2023-02-18T06:58:24;12.80;90.60
9919;DHT22;4998;51.024;13.828;2023-02-18T07:00:51;12.80;90.70
9919;DHT22;4998;51.024;13.828;2023-02-18T07:03:20;12.70;90.80
9919;DHT22;4998;51.024;13.828;2023-02-18T07:05:47;12.70;91.00
9919;DHT22;4998;51.024;13.828;2023-02-18T07:08:14;12.70;91.00
9919;DHT22;4998;51.024;13.828;2023-02-18T07:10:41;12.70;91.10
9919;DHT22;4998;51.024;13.828;2023-02-18T07:13:10;12.70;91.20
9919;DHT22;4998;51.024;13.828;2023-02-18T07:15:37;12.70;91.30
9919;DHT22;4998;51.024;13.828;2023-02-18T07:18:04;12.70;91.40
9919;DHT22;4998;51.024;13.828;2023-02-18T07:20:32;12.70;91.60
9919;DHT22;4998;51.024;13.828;2023-02-18T07:23:00;12.60;91.80
9919;DHT22;4998;51.024;13.828;2023-02-18T07:25:27;12.60;91.90
9919;DHT22;4998;51.024;13.828;2023-02-18T07:27:54;12.60;92.00
9919;DHT22;4998;51.024;13.828;2023-02-18T07:30:21;12.60;92.20
9919;DHT22;4998;51.024;13.828;2023-02-18T07:32:48;12.60;92.30
9919;DHT22;4998;51.024;13.828;2023-02-18T07:35:16;12.60;92.40
9919;DHT22;4998;51.024;13.828;2023-02-18T07:37:48;12.60;92.70
9919;DHT22;4998;51.024;13.828;2023-02-18T07:40:18;12.60;92.90
9919;DHT22;4998;51.024;13.828;2023-02-18T07:42:46;12.60;92.80
9919;DHT22;4998;51.024;13.828;2023-02-18T07:45:14;12.60;92.80
9919;DHT22;4998;51.024;13.828;2023-02-18T07:47:41;12.60;92.90
9919;DHT22;4998;51.024;13.828;2023-02-18T07:50:10;12.60;93.00
9919;DHT22;4998;51.024;13.828;2023-02-18T07:52:37;12.60;93.10
9919;DHT22;4998;51.024;13.828;2023-02-18T07:55:06;12.60;93.20
9919;DHT22;4998;51.024;13.828;2023-02-18T07:57:33;12.60;93.50
9919;DHT22;4998;51.024;13.828;2023-02-18T08:00:21;12.60;93.40
9919;DHT22;4998;51.024;13.828;2023-02-18T08:02:49;12.60;93.50
9919;DHT22;4998;51.024;13.828;2023-02-18T08:05:15;12.60;93.60
9919;DHT22;4998;51.024;13.828;2023-02-18T08:07:42;12.60;93.60
9919;DHT22;4998;51.024;13.828;2023-02-18T08:10:11;12.60;93.70
9919;DHT22;4998;51.024;13.828;2023-02-18T08:12:38;12.70;93.90
9919;DHT22;4998;51.024;13.828;2023-02-18T08:15:06;12.70;93.90
9919;DHT22;4998;51.024;13.828;2023-02-18T08:17:33;12.70;94.40
9919;DHT22;4998;51.024;13.828;2023-02-18T08:20:00;12.60;94.10
9919;DHT22;4998;51.024;13.828;2023-02-18T08:22:27;12.70;94.20
9919;DHT22;4998;51.024;13.828;2023-02-18T08:24:54;12.60;94.30
9919;DHT22;4998;51.024;13.828;2023-02-18T08:27:23;12.60;94.30
9919;DHT22;4998;51.024;13.828;2023-02-18T08:29:50;12.70;94.50
9919;DHT22;4998;51.024;13.828;2023-02-18T08:32:22;12.70;94.50
9919;DHT22;4998;51.024;13.828;2023-02-18T08:34:56;12.70;94.70
9919;DHT22;4998;51.024;13.828;2023-02-18T08:37:24;12.70;94.60
9919;DHT22;4998;51.024;13.828;2023-02-18T08:39:54;12.70;94.80
9919;DHT22;4998;51.024;13.828;2023-02-18T08:42:24;12.80;95.10
9919;DHT22;4998;51.024;13.828;2023-02-18T08:44:52;12.80;95.10
9919;DHT22;4998;51.024;13.828;2023-02-18T08:47:19;12.80;95.00
9919;DHT22;4998;51.024;13.828;2023-02-18T08:49:46;12.80;95.10
9919;DHT22;4998;51.024;13.828;2023-02-18T08:52:13;12.90;95.20
9919;DHT22;4998;51.024;13.828;2023-02-18T08:54:40;12.90;95.20
9919;DHT22;4998;51.024;13.828;2023-02-18T08:57:07;13.00;95.30
9919;DHT22;4998;51.024;13.828;2023-02-18T08:59:35;13.00;95.30
9919;DHT22;4998;51.024;13.828;2023-02-18T09:02:03;13.00;95.40
9919;DHT22;4998;51.024;13.828;2023-02-18T09:04:30;13.10;95.40
9919;DHT22;4998;51.024;13.828;2023-02-18T09:06:57;13.10;95.30
9919;DHT22;4998;51.024;13.828;2023-02-18T09:09:24;13.10;95.30
9919;DHT22;4998;51.024;13.828;2023-02-18T09:11:51;13.10;95.30
9919;DHT22;4998;51.024;13.828;2023-02-18T09:14:18;13.20;95.40
9919;DHT22;4998;51.024;13.828;2023-02-18T09:16:47;13.20;95.40
9919;DHT22;4998;51.024;13.828;2023-02-18T09:19:15;13.20;95.40
9919;DHT22;4998;51.024;13.828;2023-02-18T09:21:42;13.20;95.40
9919;DHT22;4998;51.024;13.828;2023-02-18T09:24:09;13.20;95.50
9919;DHT22;4998;51.024;13.828;2023-02-18T09:26:37;13.20;95.50
9919;DHT22;4998;51.024;13.828;2023-02-18T09:29:05;13.20;95.70
9919;DHT22;4998;51.024;13.828;2023-02-18T09:31:32;13.30;95.70
9919;DHT22;4998;51.024;13.828;2023-02-18T09:34:01;13.30;95.70
9919;DHT22;4998;51.024;13.828;2023-02-18T09:36:29;13.30;95.70
9919;DHT22;4998;51.024;13.828;2023-02-18T09:38:56;13.30;95.60
9919;DHT22;4998;51.024;13.828;2023-02-18T09:41:33;13.30;95.60
9919;DHT22;4998;51.024;13.828;2023-02-18T09:44:05;13.40;95.80
9919;DHT22;4998;51.024;13.828;2023-02-18T09:46:39;13.40;95.70
9919;DHT22;4998;51.024;13.828;2023-02-18T09:49:13;13.40;95.70
9919;DHT22;4998;51.024;13.828;2023-02-18T09:51:42;13.40;95.80
9919;DHT22;4998;51.024;13.828;2023-02-18T09:54:10;13.40;95.70
9919;DHT22;4998;51.024;13.828;2023-02-18T09:56:40;13.40;95.90
9919;DHT22;4998;51.024;13.828;2023-02-18T09:59:12;13.40;95.90
9919;DHT22;4998;51.024;13.828;2023-02-18T10:01:42;13.50;96.00
9919;DHT22;4998;51.024;13.828;2023-02-18T10:04:14;13.50;96.00
9919;DHT22;4998;51.024;13.828;2023-02-18T10:06:44;13.50;96.10
9919;DHT22;4998;51.024;13.828;2023-02-18T10:09:17;13.50;96.10
9919;DHT22;4998;51.024;13.828;2023-02-18T10:11:48;13.60;96.20
9919;DHT22;4998;51.024;13.828;2023-02-18T10:14:16;13.50;96.20
9919;DHT22;4998;51.024;13.828;2023-02-18T10:16:46;13.60;96.20
9919;DHT22;4998;51.024;13.828;2023-02-18T10:19:22;13.60;96.40
9919;DHT22;4998;51.024;13.828;2023-02-18T10:21:51;13.60;96.60
9919;DHT22;4998;51.024;13.828;2023-02-18T10:24:26;13.60;96.60
9919;DHT22;4998;51.024;13.828;2023-02-18T10:26:55;13.60;96.90
9919;DHT22;4998;51.024;13.828;2023-02-18T10:29:23;13.70;96.90
9919;DHT22;4998;51.024;13.828;2023-02-18T10:31:54;13.70;97.20
9919;DHT22;4998;51.024;13.828;2023-02-18T10:34:39;13.80;97.40
9919;DHT22;4998;51.024;13.828;2023-02-18T10:40:05;13.90;97.80
9919;DHT22;4998;51.024;13.828;2023-02-18T10:42:42;14.10;97.80
9919;DHT22;4998;51.024;13.828;2023-02-18T10:45:20;14.10;97.90
9919;DHT22;4998;51.024;13.828;2023-02-18T10:47:59;14.20;97.90
9919;DHT22;4998;51.024;13.828;2023-02-18T10:50:33;14.30;98.00
9919;DHT22;4998;51.024;13.828;2023-02-18T10:53:09;14.40;97.90
9919;DHT22;4998;51.024;13.828;2023-02-18T10:55:39;14.50;98.00
9919;DHT22;4998;51.024;13.828;2023-02-18T10:58:23;14.50;97.80
9919;DHT22;4998;51.024;13.828;2023-02-18T11:00:51;14.50;97.90
9919;DHT22;4998;51.024;13.828;2023-02-18T11:03:20;14.60;97.80
9919;DHT22;4998;51.024;13.828;2023-02-18T11:05:51;14.60;97.80
9919;DHT22;4998;51.024;13.828;2023-02-18T11:08:21;14.70;97.80
9919;DHT22;4998;51.024;13.828;2023-02-18T11:10:49;14.80;98.10
9919;DHT22;4998;51.024;13.828;2023-02-18T11:13:22;14.80;98.00
9919;DHT22;4998;51.024;13.828;2023-02-18T11:15:57;14.90;98.00
9919;DHT22;4998;51.024;13.828;2023-02-18T11:18:35;15.00;97.80
9919;DHT22;4998;51.024;13.828;2023-02-18T11:21:06;15.00;97.70
9919;DHT22;4998;51.024;13.828;2023-02-18T11:23:46;15.00;97.50
9919;DHT22;4998;51.024;13.828;2023-02-18T11:26:15;15.10;97.50
9919;DHT22;4998;51.024;13.828;2023-02-18T11:28:44;15.20;97.40
9919;DHT22;4998;51.024;13.828;2023-02-18T11:31:19;15.20;97.40
9919;DHT22;4998;51.024;13.828;2023-02-18T11:33:49;15.20;97.20
9919;DHT22;4998;51.024;13.828;2023-02-18T11:36:23;15.30;97.20
9919;DHT22;4998;51.024;13.828;2023-02-18T11:38:52;15.30;97.10
9919;DHT22;4998;51.024;13.828;2023-02-18T11:41:28;15.30;97.00
9919;DHT22;4998;51.024;13.828;2023-02-18T11:43:56;15.30;96.90
9919;DHT22;4998;51.024;13.828;2023-02-18T11:46:25;15.40;96.80
9919;DHT22;4998;51.024;13.828;2023-02-18T11:48:53;15.50;96.80
9919;DHT22;4998;51.024;13.828;2023-02-18T11:51:23;15.50;96.50
9919;DHT22;4998;51.024;13.828;2023-02-18T11:53:57;15.60;96.30
9919;DHT22;4998;51.024;13.828;2023-02-18T11:56:26;15.60;95.90
9919;DHT22;4998;51.024;13.828;2023-02-18T11:58:54;15.70;95.90
9919;DHT22;4998;51.024;13.828;2023-02-18T12:01:35;15.70;95.80
9919;DHT22;4998;51.024;13.828;2023-02-18T12:04:10;15.80;95.60
9919;DHT22;4998;51.024;13.828;2023-02-18T12:06:45;15.80;95.50
9919;DHT22;4998;51.024;13.828;2023-02-18T12:09:24;15.80;95.20
9919;DHT22;4998;51.024;13.828;2023-02-18T12:11:54;15.80;95.00
9919;DHT22;4998;51.024;13.828;2023-02-18T12:14:23;15.90;95.10
9919;DHT22;4998;51.024;13.828;2023-02-18T12:17:21;15.90;95.00
9919;DHT22;4998;51.024;13.828;2023-02-18T12:20:27;15.90;95.10
9919;DHT22;4998;51.024;13.828;2023-02-18T12:23:04;15.90;95.20
9919;DHT22;4998;51.024;13.828;2023-02-18T12:25:41;15.90;95.10
9919;DHT22;4998;51.024;13.828;2023-02-18T12:28:23;15.90;95.00
9919;DHT22;4998;51.024;13.828;2023-02-18T12:31:07;15.80;94.80
9919;DHT22;4998;51.024;13.828;2023-02-18T12:33:46;15.80;94.80
9919;DHT22;4998;51.024;13.828;2023-02-18T12:36:26;15.80;94.70
9919;DHT22;4998;51.024;13.828;2023-02-18T12:39:10;15.70;94.70
9919;DHT22;4998;51.024;13.828;2023-02-18T12:41:52;15.70;94.90
9919;DHT22;4998;51.024;13.828;2023-02-18T12:44:33;15.70;94.70
9919;DHT22;4998;51.024;13.828;2023-02-18T12:47:29;15.70;94.60
9919;DHT22;4998;51.024;13.828;2023-02-18T12:50:27;15.70;94.50
9919;DHT22;4998;51.024;13.828;2023-02-18T12:53:13;15.60;94.30
9919;DHT22;4998;51.024;13.828;2023-02-18T12:55:55;15.60;94.20
9919;DHT22;4998;51.024;13.828;2023-02-18T12:58:39;15.60;94.20
9919;DHT22;4998;51.024;13.828;2023-02-18T13:01:22;15.60;94.20
9919;DHT22;4998;51.024;13.828;2023-02-18T13:09:52;15.40;94.20
9919;DHT22;4998;51.024;13.828;2023-02-18T13:12:28;15.40;94.30
9919;DHT22;4998;51.024;13.828;2023-02-18T13:15:00;15.40;94.70
9919;DHT22;4998;51.024;13.828;2023-02-18T13:17:32;15.30;94.20
9919;DHT22;4998;51.024;13.828;2023-02-18T13:20:03;15.30;94.10
9919;DHT22;4998;51.024;13.828;2023-02-18T13:22:32;15.20;94.00
9919;DHT22;4998;51.024;13.828;2023-02-18T13:25:00;15.20;93.90
9919;DHT22;4998;51.024;13.828;2023-02-18T13:27:32;15.20;93.70
9919;DHT22;4998;51.024;13.828;2023-02-18T13:30:17;15.20;93.40
9919;DHT22;4998;51.024;13.828;2023-02-18T13:32:54;15.20;93.70
9919;DHT22;4998;51.024;13.828;2023-02-18T13:35:28;15.20;93.70
9919;DHT22;4998;51.024;13.828;2023-02-18T13:38:21;15.20;92.90
9919;DHT22;4998;51.024;13.828;2023-02-18T13:40:53;15.10;92.60
9919;DHT22;4998;51.024;13.828;2023-02-18T13:43:29;15.20;92.60
9919;DHT22;4998;51.024;13.828;2023-02-18T13:46:17;15.20;92.60
9919;DHT22;4998;51.024;13.828;2023-02-18T13:48:47;15.20;92.60
9919;DHT22;4998;51.024;13.828;2023-02-18T13:51:16;15.20;92.10
9919;DHT22;4998;51.024;13.828;2023-02-18T13:53:49;15.10;92.20
9919;DHT22;4998;51.024;13.828;2023-02-18T13:56:22;15.10;91.90
9919;DHT22;4998;51.024;13.828;2023-02-18T13:58:59;15.10;91.90
9919;DHT22;4998;51.024;13.828;2023-02-18T14:01:39;15.00;91.10
9919;DHT22;4998;51.024;13.828;2023-02-18T14:04:35;14.90;91.20
9919;DHT22;4998;51.024;13.828;2023-02-18T14:07:26;14.90;91.50
9919;DHT22;4998;51.024;13.828;2023-02-18T14:09:55;14.80;91.50
9919;DHT22;4998;51.024;13.828;2023-02-18T14:12:35;14.80;91.30
9919;DHT22;4998;51.024;13.828;2023-02-18T14:15:49;14.80;91.00
9919;DHT22;4998;51.024;13.828;2023-02-18T14:32:59;14.80;91.00
9919;DHT22;4998;51.024;13.828;2023-02-18T14:35:32;14.70;90.20
9919;DHT22;4998;51.024;13.828;2023-02-18T14:38:28;14.80;90.00
9919;DHT22;4998;51.024;13.828;2023-02-18T14:41:07;14.80;90.00
9919;DHT22;4998;51.024;13.828;2023-02-18T14:43:58;14.90;89.20
9919;DHT22;4998;51.024;13.828;2023-02-18T14:46:38;14.90;88.90
9919;DHT22;4998;51.024;13.828;2023-02-18T14:49:25;14.80;88.30
9919;DHT22;4998;51.024;13.828;2023-02-18T14:51:59;14.80;88.30
9919;DHT22;4998;51.024;13.828;2023-02-18T14:54:31;14.80;88.30
9919;DHT22;4998;51.024;13.828;2023-02-18T14:57:00;14.80;88.20
9919;DHT22;4998;51.024;13.828;2023-02-18T14:59:35;14.80;88.30
9919;DHT22;4998;51.024;13.828;2023-02-18T15:02:16;14.80;88.60
9919;DHT22;4998;51.024;13.828;2023-02-18T15:04:49;14.80;88.80
9919;DHT22;4998;51.024;13.828;2023-02-18T15:07:23;14.80;88.80
9919;DHT22;4998;51.024;13.828;2023-02-18T15:09:55;14.70;89.30
9919;DHT22;4998;51.024;13.828;2023-02-18T15:12:24;14.70;89.90
9919;DHT22;4998;51.024;13.828;2023-02-18T15:14:52;14.60;90.20
9919;DHT22;4998;51.024;13.828;2023-02-18T15:17:24;14.50;90.50
9919;DHT22;4998;51.024;13.828;2023-02-18T15:20:01;14.50;90.70
9919;DHT22;4998;51.024;13.828;2023-02-18T15:22:34;14.50;91.00
9919;DHT22;4998;51.024;13.828;2023-02-18T15:25:11;14.40;91.10
9919;DHT22;4998;51.024;13.828;2023-02-18T15:27:43;14.40;91.30
9919;DHT22;4998;51.024;13.828;2023-02-18T15:30:20;14.30;91.50
9919;DHT22;4998;51.024;13.828;2023-02-18T15:32:50;14.30;91.60
9919;DHT22;4998;51.024;13.828;2023-02-18T15:35:25;14.20;91.60
9919;DHT22;4998;51.024;13.828;2023-02-18T15:37:57;14.20;91.80
9919;DHT22;4998;51.024;13.828;2023-02-18T15:40:28;14.10;91.80
9919;DHT22;4998;51.024;13.828;2023-02-18T15:42:58;14.10;91.90
9919;DHT22;4998;51.024;13.828;2023-02-18T15:45:31;14.10;91.80
9919;DHT22;4998;51.024;13.828;2023-02-18T15:48:05;14.10;91.90
9919;DHT22;4998;51.024;13.828;2023-02-18T15:50:50;14.10;91.70
9919;DHT22;4998;51.024;13.828;2023-02-18T15:53:17;14.10;91.60
9919;DHT22;4998;51.024;13.828;2023-02-18T15:55:56;14.20;91.50
9919;DHT22;4998;51.024;13.828;2023-02-18T15:58:28;14.20;91.40
9919;DHT22;4998;51.024;13.828;2023-02-18T16:01:04;14.30;91.40
9919;DHT22;4998;51.024;13.828;2023-02-18T16:03:43;14.30;91.00
9919;DHT22;4998;51.024;13.828;2023-02-18T16:06:20;14.40;90.80
9919;DHT22;4998;51.024;13.828;2023-02-18T16:08:55;14.40;90.50
9919;DHT22;4998;51.024;13.828;2023-02-18T16:11:36;14.50;90.60
9919;DHT22;4998;51.024;13.828;2023-02-18T16:14:23;14.50;90.20
9919;DHT22;4998;51.024;13.828;2023-02-18T16:17:06;14.50;90.00
9919;DHT22;4998;51.024;13.828;2023-02-18T16:19:45;14.60;89.60
9919;DHT22;4998;51.024;13.828;2023-02-18T16:22:25;14.60;89.30
9919;DHT22;4998;51.024;13.828;2023-02-18T16:24:56;14.60;89.10
9919;DHT22;4998;51.024;13.828;2023-02-18T16:27:31;14.60;88.90
9919;DHT22;4998;51.024;13.828;2023-02-18T16:30:16;14.60;88.80
9919;DHT22;4998;51.024;13.828;2023-02-18T16:32:54;14.70;88.80
9919;DHT22;4998;51.024;13.828;2023-02-18T16:35:27;14.70;88.50
9919;DHT22;4998;51.024;13.828;2023-02-18T16:37:56;14.70;87.80
9919;DHT22;4998;51.024;13.828;2023-02-18T16:40:27;14.70;88.00
9919;DHT22;4998;51.024;13.828;2023-02-18T16:42:55;14.70;87.90
9919;DHT22;4998;51.024;13.828;2023-02-18T16:45:30;14.70;87.70
9919;DHT22;4998;51.024;13.828;2023-02-18T16:47:58;14.70;87.50
9919;DHT22;4998;51.024;13.828;2023-02-18T16:50:27;14.70;87.30
9919;DHT22;4998;51.024;13.828;2023-02-18T16:52:58;14.70;87.30